sensor_id;sensor_type;location;lat;lon;timestamp;P1;durP1;ratioP1;P2;durP2;ratioP2
73550;SDS011;61816;53.582;10.096;2022-12-18T00:01:39;49.57;;;24.23;;
73550;SDS011;61816;53.582;10.096;2022-12-18T00:04:05;57.33;;;26.13;;
73550;SDS011;61816;53.582;10.096;2022-12-18T00:06:33;49.73;;;24.83;;
73550;SDS011;61816;53.582;10.096;2022-12-18T00:09:00;52.10;;;23.47;;
73550;SDS011;61816;53.582;10.096;2022-12-18T00:11:27;60.83;;;26.17;;
73550;SDS011;61816;53.582;10.096;2022-12-18T00:13:55;51.60;;;24.93;;
73550;SDS011;61816;53.582;10.096;2022-12-18T00:16:23;50.33;;;22.80;;
73550;SDS011;61816;53.582;10.096;2022-12-18T00:18:50;64.50;;;25.40;;
73550;SDS011;61816;53.582;10.096;2022-12-18T00:21:17;53.90;;;24.73;;
73550;SDS011;61816;53.582;10.096;2022-12-18T00:23:43;53.17;;;24.20;;
73550;SDS011;61816;53.582;10.096;2022-12-18T00:26:11;57.93;;;26.30;;
73550;SDS011;61816;53.582;10.096;2022-12-18T00:28:42;52.13;;;23.30;;
73550;SDS011;61816;53.582;10.096;2022-12-18T00:31:09;58.83;;;23.10;;
73550;SDS011;61816;53.582;10.096;2022-12-18T00:33:36;60.97;;;27.43;;
73550;SDS011;61816;53.582;10.096;2022-12-18T00:36:03;54.77;;;25.20;;
73550;SDS011;61816;53.582;10.096;2022-12-18T00:38:35;49.93;;;24.93;;
73550;SDS011;61816;53.582;10.096;2022-12-18T00:41:01;58.20;;;25.10;;
73550;SDS011;61816;53.582;10.096;2022-12-18T00:43:27;59.93;;;26.13;;
73550;SDS011;61816;53.582;10.096;2022-12-18T00:45:52;53.80;;;24.53;;
73550;SDS011;61816;53.582;10.096;2022-12-18T00:48:18;55.57;;;24.33;;
73550;SDS011;61816;53.582;10.096;2022-12-18T00:50:43;51.43;;;25.43;;
73550;SDS011;61816;53.582;10.096;2022-12-18T00:53:09;58.73;;;23.47;;
73550;SDS011;61816;53.582;10.096;2022-12-18T00:55:34;65.37;;;24.10;;
73550;SDS011;61816;53.582;10.096;2022-12-18T00:58:00;57.17;;;22.87;;
73550;SDS011;61816;53.582;10.096;2022-12-18T01:00:25;46.53;;;22.30;;
73550;SDS011;61816;53.582;10.096;2022-12-18T01:02:50;50.93;;;23.17;;
73550;SDS011;61816;53.582;10.096;2022-12-18T01:05:16;50.83;;;24.53;;
73550;SDS011;61816;53.582;10.096;2022-12-18T01:07:41;51.80;;;23.57;;
73550;SDS011;61816;53.582;10.096;2022-12-18T01:10:07;91.40;;;24.00;;
73550;SDS011;61816;53.582;10.096;2022-12-18T01:12:36;53.07;;;23.83;;
73550;SDS011;61816;53.582;10.096;2022-12-18T01:15:01;45.93;;;21.37;;
73550;SDS011;61816;53.582;10.096;2022-12-18T01:17:27;51.33;;;22.13;;
73550;SDS011;61816;53.582;10.096;2022-12-18T01:19:53;48.87;;;23.57;;
73550;SDS011;61816;53.582;10.096;2022-12-18T01:22:18;54.03;;;23.67;;
73550;SDS011;61816;53.582;10.096;2022-12-18T01:24:43;50.57;;;22.87;;
73550;SDS011;61816;53.582;10.096;2022-12-18T01:27:09;56.53;;;23.43;;
73550;SDS011;61816;53.582;10.096;2022-12-18T01:29:34;51.73;;;22.70;;
73550;SDS011;61816;53.582;10.096;2022-12-18T01:31:59;52.23;;;23.87;;
73550;SDS011;61816;53.582;10.096;2022-12-18T01:34:25;60.73;;;22.50;;
73550;SDS011;61816;53.582;10.096;2022-12-18T01:36:50;60.60;;;22.70;;
73550;SDS011;61816;53.582;10.096;2022-12-18T01:39:18;45.07;;;20.97;;
73550;SDS011;61816;53.582;10.096;2022-12-18T01:41:44;53.57;;;21.53;;
73550;SDS011;61816;53.582;10.096;2022-12-18T01:47:33;49.70;;;20.53;;
73550;SDS011;61816;53.582;10.096;2022-12-18T01:50:51;44.50;;;21.53;;
73550;SDS011;61816;53.582;10.096;2022-12-18T01:53:11;51.00;;;20.67;;
73550;SDS011;61816;53.582;10.096;2022-12-18T01:55:40;41.40;;;19.60;;
73550;SDS011;61816;53.582;10.096;2022-12-18T01:58:13;51.63;;;20.63;;
73550;SDS011;61816;53.582;10.096;2022-12-18T02:00:38;45.07;;;21.10;;
73550;SDS011;61816;53.582;10.096;2022-12-18T02:03:04;45.50;;;21.17;;
73550;SDS011;61816;53.582;10.096;2022-12-18T02:05:44;51.83;;;21.43;;
73550;SDS011;61816;53.582;10.096;2022-12-18T02:14:02;47.73;;;21.50;;
73550;SDS011;61816;53.582;10.096;2022-12-18T02:19:39;43.13;;;19.67;;
73550;SDS011;61816;53.582;10.096;2022-12-18T02:27:58;50.73;;;19.90;;
73550;SDS011;61816;53.582;10.096;2022-12-18T02:30:26;49.30;;;19.17;;
73550;SDS011;61816;53.582;10.096;2022-12-18T02:32:56;39.87;;;17.63;;
73550;SDS011;61816;53.582;10.096;2022-12-18T02:39:04;38.07;;;17.83;;
73550;SDS011;61816;53.582;10.096;2022-12-18T02:41:31;37.23;;;17.70;;
73550;SDS011;61816;53.582;10.096;2022-12-18T02:44:00;48.53;;;18.83;;
73550;SDS011;61816;53.582;10.096;2022-12-18T02:46:28;42.00;;;17.70;;
73550;SDS011;61816;53.582;10.096;2022-12-18T02:49:01;46.50;;;18.07;;
73550;SDS011;61816;53.582;10.096;2022-12-18T02:51:41;43.57;;;18.27;;
73550;SDS011;61816;53.582;10.096;2022-12-18T02:54:28;39.30;;;18.40;;
73550;SDS011;61816;53.582;10.096;2022-12-18T02:57:06;52.77;;;17.60;;
73550;SDS011;61816;53.582;10.096;2022-12-18T02:59:41;36.53;;;16.30;;
73550;SDS011;61816;53.582;10.096;2022-12-18T03:05:01;50.07;;;18.87;;
73550;SDS011;61816;53.582;10.096;2022-12-18T03:07:41;41.03;;;17.63;;
73550;SDS011;61816;53.582;10.096;2022-12-18T03:10:12;39.50;;;17.13;;
73550;SDS011;61816;53.582;10.096;2022-12-18T03:12:52;42.97;;;17.77;;
73550;SDS011;61816;53.582;10.096;2022-12-18T03:15:22;46.77;;;20.83;;
73550;SDS011;61816;53.582;10.096;2022-12-18T03:17:59;48.57;;;17.87;;
73550;SDS011;61816;53.582;10.096;2022-12-18T03:20:28;38.70;;;17.10;;
73550;SDS011;61816;53.582;10.096;2022-12-18T03:23:09;40.40;;;18.27;;
73550;SDS011;61816;53.582;10.096;2022-12-18T03:25:39;45.23;;;18.80;;
73550;SDS011;61816;53.582;10.096;2022-12-18T03:28:08;40.33;;;17.13;;
73550;SDS011;61816;53.582;10.096;2022-12-18T03:30:38;51.27;;;19.50;;
73550;SDS011;61816;53.582;10.096;2022-12-18T03:33:14;38.10;;;18.60;;
73550;SDS011;61816;53.582;10.096;2022-12-18T03:35:45;44.87;;;18.27;;
73550;SDS011;61816;53.582;10.096;2022-12-18T03:38:11;42.53;;;18.87;;
73550;SDS011;61816;53.582;10.096;2022-12-18T03:43:16;43.70;;;18.47;;
73550;SDS011;61816;53.582;10.096;2022-12-18T03:46:06;46.97;;;17.93;;
73550;SDS011;61816;53.582;10.096;2022-12-18T03:48:38;41.03;;;18.37;;
73550;SDS011;61816;53.582;10.096;2022-12-18T03:54:17;38.83;;;16.27;;
73550;SDS011;61816;53.582;10.096;2022-12-18T03:56:45;46.33;;;17.40;;
73550;SDS011;61816;53.582;10.096;2022-12-18T03:59:13;34.90;;;17.83;;
73550;SDS011;61816;53.582;10.096;2022-12-18T04:01:42;40.03;;;17.00;;
73550;SDS011;61816;53.582;10.096;2022-12-18T04:04:12;42.08;;;17.98;;
73550;SDS011;61816;53.582;10.096;2022-12-18T04:06:41;37.53;;;17.87;;
73550;SDS011;61816;53.582;10.096;2022-12-18T04:09:08;33.87;;;16.43;;
73550;SDS011;61816;53.582;10.096;2022-12-18T04:11:33;40.83;;;18.07;;
73550;SDS011;61816;53.582;10.096;2022-12-18T04:13:58;37.00;;;16.13;;
73550;SDS011;61816;53.582;10.096;2022-12-18T04:16:25;39.20;;;17.00;;
73550;SDS011;61816;53.582;10.096;2022-12-18T04:18:51;40.03;;;16.40;;
73550;SDS011;61816;53.582;10.096;2022-12-18T04:21:16;40.03;;;17.83;;
73550;SDS011;61816;53.582;10.096;2022-12-18T04:23:41;39.10;;;16.93;;
73550;SDS011;61816;53.582;10.096;2022-12-18T04:26:07;44.00;;;18.33;;
73550;SDS011;61816;53.582;10.096;2022-12-18T04:28:33;36.20;;;17.30;;
73550;SDS011;61816;53.582;10.096;2022-12-18T04:30:58;38.83;;;17.30;;
73550;SDS011;61816;53.582;10.096;2022-12-18T04:33:23;38.00;;;18.20;;
73550;SDS011;61816;53.582;10.096;2022-12-18T04:35:52;43.47;;;19.03;;
73550;SDS011;61816;53.582;10.096;2022-12-18T04:38:17;39.37;;;18.17;;
73550;SDS011;61816;53.582;10.096;2022-12-18T04:40:43;38.13;;;18.10;;
73550;SDS011;61816;53.582;10.096;2022-12-18T04:43:08;50.27;;;16.67;;
73550;SDS011;61816;53.582;10.096;2022-12-18T04:45:33;42.73;;;18.43;;
73550;SDS011;61816;53.582;10.096;2022-12-18T04:47:59;37.13;;;17.07;;
73550;SDS011;61816;53.582;10.096;2022-12-18T04:50:26;51.23;;;19.43;;
73550;SDS011;61816;53.582;10.096;2022-12-18T04:52:52;44.13;;;18.47;;
73550;SDS011;61816;53.582;10.096;2022-12-18T04:55:17;48.33;;;19.40;;
73550;SDS011;61816;53.582;10.096;2022-12-18T04:57:42;35.97;;;17.87;;
73550;SDS011;61816;53.582;10.096;2022-12-18T05:00:08;37.27;;;17.67;;
73550;SDS011;61816;53.582;10.096;2022-12-18T05:02:34;40.37;;;17.37;;
73550;SDS011;61816;53.582;10.096;2022-12-18T05:04:59;46.70;;;19.53;;
73550;SDS011;61816;53.582;10.096;2022-12-18T05:07:24;40.60;;;19.23;;
73550;SDS011;61816;53.582;10.096;2022-12-18T05:09:50;40.77;;;17.57;;
73550;SDS011;61816;53.582;10.096;2022-12-18T05:12:15;43.07;;;17.37;;
73550;SDS011;61816;53.582;10.096;2022-12-18T05:14:40;47.33;;;18.13;;
73550;SDS011;61816;53.582;10.096;2022-12-18T05:17:06;50.63;;;19.73;;
73550;SDS011;61816;53.582;10.096;2022-12-18T05:19:31;43.03;;;19.17;;
73550;SDS011;61816;53.582;10.096;2022-12-18T05:21:57;43.70;;;18.20;;
73550;SDS011;61816;53.582;10.096;2022-12-18T05:24:22;39.67;;;18.87;;
73550;SDS011;61816;53.582;10.096;2022-12-18T05:26:48;40.67;;;17.60;;
73550;SDS011;61816;53.582;10.096;2022-12-18T05:29:13;41.07;;;17.40;;
73550;SDS011;61816;53.582;10.096;2022-12-18T05:31:38;46.87;;;20.00;;
73550;SDS011;61816;53.582;10.096;2022-12-18T05:34:04;45.30;;;20.67;;
73550;SDS011;61816;53.582;10.096;2022-12-18T05:36:30;44.83;;;19.03;;
73550;SDS011;61816;53.582;10.096;2022-12-18T05:38:55;42.67;;;17.83;;
73550;SDS011;61816;53.582;10.096;2022-12-18T05:41:21;52.50;;;20.53;;
73550;SDS011;61816;53.582;10.096;2022-12-18T05:43:46;48.03;;;20.20;;
73550;SDS011;61816;53.582;10.096;2022-12-18T05:46:12;45.83;;;17.13;;
73550;SDS011;61816;53.582;10.096;2022-12-18T05:48:40;38.43;;;17.93;;
73550;SDS011;61816;53.582;10.096;2022-12-18T05:51:10;36.93;;;18.87;;
73550;SDS011;61816;53.582;10.096;2022-12-18T05:53:37;42.50;;;19.75;;
73550;SDS011;61816;53.582;10.096;2022-12-18T05:56:03;47.33;;;20.63;;
73550;SDS011;61816;53.582;10.096;2022-12-18T05:58:30;38.87;;;18.73;;
73550;SDS011;61816;53.582;10.096;2022-12-18T06:00:57;60.80;;;19.60;;
73550;SDS011;61816;53.582;10.096;2022-12-18T06:03:22;49.43;;;20.83;;
73550;SDS011;61816;53.582;10.096;2022-12-18T06:05:48;43.70;;;20.73;;
73550;SDS011;61816;53.582;10.096;2022-12-18T06:08:14;43.63;;;20.13;;
73550;SDS011;61816;53.582;10.096;2022-12-18T06:10:39;39.80;;;18.90;;
73550;SDS011;61816;53.582;10.096;2022-12-18T06:13:05;55.57;;;21.53;;
73550;SDS011;61816;53.582;10.096;2022-12-18T06:15:31;52.40;;;22.83;;
73550;SDS011;61816;53.582;10.096;2022-12-18T06:17:57;50.97;;;20.77;;
73550;SDS011;61816;53.582;10.096;2022-12-18T06:20:23;41.57;;;20.60;;
73550;SDS011;61816;53.582;10.096;2022-12-18T06:22:48;43.13;;;19.27;;
73550;SDS011;61816;53.582;10.096;2022-12-18T06:25:14;43.73;;;19.70;;
73550;SDS011;61816;53.582;10.096;2022-12-18T06:27:39;52.50;;;20.10;;
73550;SDS011;61816;53.582;10.096;2022-12-18T06:30:05;45.43;;;19.67;;
73550;SDS011;61816;53.582;10.096;2022-12-18T06:32:31;55.63;;;21.77;;
73550;SDS011;61816;53.582;10.096;2022-12-18T06:34:56;46.17;;;19.30;;
73550;SDS011;61816;53.582;10.096;2022-12-18T06:37:22;46.93;;;20.47;;
73550;SDS011;61816;53.582;10.096;2022-12-18T06:39:51;47.47;;;19.60;;
73550;SDS011;61816;53.582;10.096;2022-12-18T06:42:16;45.30;;;21.67;;
73550;SDS011;61816;53.582;10.096;2022-12-18T06:44:42;44.73;;;20.53;;
73550;SDS011;61816;53.582;10.096;2022-12-18T06:47:07;50.37;;;22.93;;
73550;SDS011;61816;53.582;10.096;2022-12-18T06:49:32;50.53;;;22.67;;
73550;SDS011;61816;53.582;10.096;2022-12-18T06:51:58;46.40;;;21.00;;
73550;SDS011;61816;53.582;10.096;2022-12-18T06:54:23;55.10;;;21.50;;
73550;SDS011;61816;53.582;10.096;2022-12-18T06:56:48;66.33;;;23.23;;
73550;SDS011;61816;53.582;10.096;2022-12-18T06:59:14;57.47;;;21.67;;
73550;SDS011;61816;53.582;10.096;2022-12-18T07:01:39;51.63;;;22.53;;
73550;SDS011;61816;53.582;10.096;2022-12-18T07:04:05;51.00;;;21.27;;
73550;SDS011;61816;53.582;10.096;2022-12-18T07:06:30;50.63;;;21.67;;
73550;SDS011;61816;53.582;10.096;2022-12-18T07:08:55;59.17;;;23.17;;
73550;SDS011;61816;53.582;10.096;2022-12-18T07:11:21;55.33;;;21.87;;
73550;SDS011;61816;53.582;10.096;2022-12-18T07:13:46;54.97;;;23.90;;
73550;SDS011;61816;53.582;10.096;2022-12-18T07:16:16;53.37;;;22.13;;
73550;SDS011;61816;53.582;10.096;2022-12-18T07:18:43;52.43;;;23.33;;
73550;SDS011;61816;53.582;10.096;2022-12-18T07:21:09;46.83;;;20.40;;
73550;SDS011;61816;53.582;10.096;2022-12-18T07:23:36;53.60;;;22.00;;
73550;SDS011;61816;53.582;10.096;2022-12-18T07:26:05;45.47;;;21.70;;
73550;SDS011;61816;53.582;10.096;2022-12-18T07:28:33;51.57;;;21.47;;
73550;SDS011;61816;53.582;10.096;2022-12-18T07:31:05;53.53;;;22.80;;
73550;SDS011;61816;53.582;10.096;2022-12-18T07:33:35;45.93;;;20.47;;
73550;SDS011;61816;53.582;10.096;2022-12-18T07:36:04;53.03;;;20.40;;
73550;SDS011;61816;53.582;10.096;2022-12-18T07:38:32;61.85;;;20.85;;
73550;SDS011;61816;53.582;10.096;2022-12-18T07:41:05;53.83;;;22.33;;
73550;SDS011;61816;53.582;10.096;2022-12-18T07:43:33;62.47;;;21.73;;
73550;SDS011;61816;53.582;10.096;2022-12-18T07:45:59;52.80;;;22.03;;
73550;SDS011;61816;53.582;10.096;2022-12-18T07:48:24;63.50;;;24.50;;
73550;SDS011;61816;53.582;10.096;2022-12-18T07:50:50;51.27;;;22.83;;
73550;SDS011;61816;53.582;10.096;2022-12-18T07:53:16;47.63;;;21.03;;
73550;SDS011;61816;53.582;10.096;2022-12-18T07:55:41;46.90;;;22.10;;
73550;SDS011;61816;53.582;10.096;2022-12-18T07:58:07;55.87;;;22.43;;
73550;SDS011;61816;53.582;10.096;2022-12-18T08:00:33;44.43;;;20.50;;
73550;SDS011;61816;53.582;10.096;2022-12-18T08:02:59;49.47;;;23.30;;
73550;SDS011;61816;53.582;10.096;2022-12-18T08:05:24;55.53;;;23.83;;
73550;SDS011;61816;53.582;10.096;2022-12-18T08:07:49;53.07;;;22.70;;
73550;SDS011;61816;53.582;10.096;2022-12-18T08:10:15;50.50;;;21.07;;
73550;SDS011;61816;53.582;10.096;2022-12-18T08:12:41;49.87;;;21.33;;
73550;SDS011;61816;53.582;10.096;2022-12-18T08:15:06;50.93;;;21.57;;
73550;SDS011;61816;53.582;10.096;2022-12-18T08:17:32;55.67;;;23.30;;
73550;SDS011;61816;53.582;10.096;2022-12-18T08:19:58;47.30;;;22.03;;
73550;SDS011;61816;53.582;10.096;2022-12-18T08:22:23;54.77;;;20.70;;
73550;SDS011;61816;53.582;10.096;2022-12-18T08:24:48;51.50;;;22.23;;
73550;SDS011;61816;53.582;10.096;2022-12-18T08:27:14;44.63;;;20.63;;
73550;SDS011;61816;53.582;10.096;2022-12-18T08:29:39;42.07;;;21.27;;
73550;SDS011;61816;53.582;10.096;2022-12-18T08:32:05;54.87;;;21.20;;
73550;SDS011;61816;53.582;10.096;2022-12-18T08:34:30;47.27;;;21.03;;
73550;SDS011;61816;53.582;10.096;2022-12-18T08:36:55;52.73;;;22.70;;
73550;SDS011;61816;53.582;10.096;2022-12-18T08:39:21;50.10;;;20.37;;
73550;SDS011;61816;53.582;10.096;2022-12-18T08:41:46;52.60;;;20.93;;
73550;SDS011;61816;53.582;10.096;2022-12-18T08:44:32;54.93;;;21.77;;
73550;SDS011;61816;53.582;10.096;2022-12-18T08:47:04;52.63;;;21.53;;
73550;SDS011;61816;53.582;10.096;2022-12-18T08:49:30;49.70;;;21.67;;
73550;SDS011;61816;53.582;10.096;2022-12-18T08:51:56;46.53;;;21.50;;
73550;SDS011;61816;53.582;10.096;2022-12-18T08:54:25;52.93;;;20.90;;
73550;SDS011;61816;53.582;10.096;2022-12-18T08:56:50;47.23;;;18.97;;
73550;SDS011;61816;53.582;10.096;2022-12-18T08:59:17;44.77;;;19.53;;
73550;SDS011;61816;53.582;10.096;2022-12-18T09:01:43;39.97;;;18.40;;
73550;SDS011;61816;53.582;10.096;2022-12-18T09:04:09;42.90;;;19.37;;
73550;SDS011;61816;53.582;10.096;2022-12-18T09:06:35;41.47;;;18.10;;
73550;SDS011;61816;53.582;10.096;2022-12-18T09:09:00;39.90;;;18.93;;
73550;SDS011;61816;53.582;10.096;2022-12-18T09:11:26;38.87;;;17.67;;
73550;SDS011;61816;53.582;10.096;2022-12-18T09:13:52;39.33;;;19.70;;
73550;SDS011;61816;53.582;10.096;2022-12-18T09:16:18;54.53;;;19.27;;
73550;SDS011;61816;53.582;10.096;2022-12-18T09:18:44;41.83;;;18.13;;
73550;SDS011;61816;53.582;10.096;2022-12-18T09:21:11;42.70;;;17.80;;
73550;SDS011;61816;53.582;10.096;2022-12-18T09:23:39;37.40;;;16.83;;
73550;SDS011;61816;53.582;10.096;2022-12-18T09:26:04;45.43;;;16.97;;
73550;SDS011;61816;53.582;10.096;2022-12-18T09:28:30;43.70;;;17.97;;
73550;SDS011;61816;53.582;10.096;2022-12-18T09:30:55;50.87;;;17.23;;
73550;SDS011;61816;53.582;10.096;2022-12-18T09:33:20;42.33;;;16.83;;
73550;SDS011;61816;53.582;10.096;2022-12-18T09:35:46;47.30;;;18.00;;
73550;SDS011;61816;53.582;10.096;2022-12-18T09:38:12;39.53;;;17.00;;
73550;SDS011;61816;53.582;10.096;2022-12-18T09:40:44;49.07;;;18.73;;
73550;SDS011;61816;53.582;10.096;2022-12-18T09:43:20;41.50;;;17.37;;
73550;SDS011;61816;53.582;10.096;2022-12-18T09:45:51;37.13;;;17.90;;
73550;SDS011;61816;53.582;10.096;2022-12-18T09:50:50;38.60;;;17.40;;
73550;SDS011;61816;53.582;10.096;2022-12-18T09:53:20;37.53;;;17.40;;
73550;SDS011;61816;53.582;10.096;2022-12-18T09:55:50;31.43;;;16.63;;
73550;SDS011;61816;53.582;10.096;2022-12-18T09:58:25;43.23;;;17.73;;
73550;SDS011;61816;53.582;10.096;2022-12-18T10:00:55;39.23;;;18.10;;
73550;SDS011;61816;53.582;10.096;2022-12-18T10:03:21;40.83;;;17.77;;
73550;SDS011;61816;53.582;10.096;2022-12-18T10:06:48;35.57;;;18.70;;
73550;SDS011;61816;53.582;10.096;2022-12-18T10:09:09;35.50;;;16.67;;
73550;SDS011;61816;53.582;10.096;2022-12-18T10:11:54;41.10;;;17.27;;
73550;SDS011;61816;53.582;10.096;2022-12-18T10:14:34;39.37;;;18.93;;
73550;SDS011;61816;53.582;10.096;2022-12-18T10:17:11;34.93;;;17.27;;
73550;SDS011;61816;53.582;10.096;2022-12-18T10:19:52;34.80;;;16.00;;
73550;SDS011;61816;53.582;10.096;2022-12-18T10:22:34;37.97;;;17.80;;
73550;SDS011;61816;53.582;10.096;2022-12-18T10:28:10;44.30;;;17.43;;
73550;SDS011;61816;53.582;10.096;2022-12-18T10:30:42;43.60;;;17.60;;
73550;SDS011;61816;53.582;10.096;2022-12-18T10:33:11;33.73;;;15.23;;
73550;SDS011;61816;53.582;10.096;2022-12-18T10:35:41;46.40;;;17.87;;
73550;SDS011;61816;53.582;10.096;2022-12-18T10:43:19;39.03;;;16.73;;
73550;SDS011;61816;53.582;10.096;2022-12-18T10:46:01;34.67;;;16.87;;
73550;SDS011;61816;53.582;10.096;2022-12-18T10:48:34;38.80;;;16.60;;
73550;SDS011;61816;53.582;10.096;2022-12-18T10:51:03;41.13;;;17.57;;
73550;SDS011;61816;53.582;10.096;2022-12-18T10:53:31;37.27;;;17.50;;
73550;SDS011;61816;53.582;10.096;2022-12-18T10:55:59;34.33;;;16.00;;
73550;SDS011;61816;53.582;10.096;2022-12-18T11:03:45;34.67;;;17.47;;
73550;SDS011;61816;53.582;10.096;2022-12-18T11:06:23;35.50;;;16.60;;
73550;SDS011;61816;53.582;10.096;2022-12-18T11:08:59;41.33;;;16.87;;
73550;SDS011;61816;53.582;10.096;2022-12-18T11:11:27;38.07;;;17.00;;
73550;SDS011;61816;53.582;10.096;2022-12-18T11:16:27;36.80;;;15.40;;
73550;SDS011;61816;53.582;10.096;2022-12-18T11:18:59;31.87;;;16.37;;
73550;SDS011;61816;53.582;10.096;2022-12-18T11:21:41;33.60;;;15.37;;
73550;SDS011;61816;53.582;10.096;2022-12-18T11:24:13;29.20;;;15.03;;
73550;SDS011;61816;53.582;10.096;2022-12-18T11:26:45;35.80;;;16.63;;
73550;SDS011;61816;53.582;10.096;2022-12-18T11:29:15;31.50;;;15.07;;
73550;SDS011;61816;53.582;10.096;2022-12-18T11:31:43;35.13;;;15.90;;
73550;SDS011;61816;53.582;10.096;2022-12-18T11:34:13;31.60;;;14.77;;
73550;SDS011;61816;53.582;10.096;2022-12-18T11:36:48;36.60;;;16.07;;
73550;SDS011;61816;53.582;10.096;2022-12-18T11:39:35;28.00;;;14.47;;
73550;SDS011;61816;53.582;10.096;2022-12-18T11:42:12;37.03;;;16.70;;
73550;SDS011;61816;53.582;10.096;2022-12-18T11:44:47;35.27;;;16.10;;
73550;SDS011;61816;53.582;10.096;2022-12-18T11:50:24;39.40;;;16.20;;
73550;SDS011;61816;53.582;10.096;2022-12-18T11:52:53;33.28;;;15.63;;
73550;SDS011;61816;53.582;10.096;2022-12-18T11:55:35;33.40;;;15.03;;
73550;SDS011;61816;53.582;10.096;2022-12-18T12:03:34;44.23;;;16.20;;
73550;SDS011;61816;53.582;10.096;2022-12-18T12:14:43;37.17;;;15.40;;
73550;SDS011;61816;53.582;10.096;2022-12-18T12:17:31;31.60;;;15.90;;
73550;SDS011;61816;53.582;10.096;2022-12-18T12:20:02;33.20;;;15.53;;
73550;SDS011;61816;53.582;10.096;2022-12-18T12:22:47;34.40;;;14.87;;
73550;SDS011;61816;53.582;10.096;2022-12-18T12:25:23;30.37;;;15.50;;
73550;SDS011;61816;53.582;10.096;2022-12-18T12:31:08;33.40;;;16.10;;
73550;SDS011;61816;53.582;10.096;2022-12-18T12:39:27;43.97;;;18.07;;
73550;SDS011;61816;53.582;10.096;2022-12-18T12:41:57;36.83;;;15.80;;
73550;SDS011;61816;53.582;10.096;2022-12-18T12:44:51;42.00;;;18.63;;
73550;SDS011;61816;53.582;10.096;2022-12-18T12:47:21;38.40;;;17.80;;
73550;SDS011;61816;53.582;10.096;2022-12-18T12:49:50;40.47;;;18.20;;
73550;SDS011;61816;53.582;10.096;2022-12-18T12:55:05;39.73;;;17.53;;
73550;SDS011;61816;53.582;10.096;2022-12-18T12:57:42;40.50;;;18.63;;
73550;SDS011;61816;53.582;10.096;2022-12-18T13:00:14;44.73;;;19.40;;
73550;SDS011;61816;53.582;10.096;2022-12-18T13:08:06;41.63;;;18.80;;
73550;SDS011;61816;53.582;10.096;2022-12-18T13:10:43;41.20;;;17.83;;
73550;SDS011;61816;53.582;10.096;2022-12-18T13:13:09;43.33;;;18.67;;
73550;SDS011;61816;53.582;10.096;2022-12-18T13:15:38;39.07;;;18.40;;
73550;SDS011;61816;53.582;10.096;2022-12-18T13:20:35;42.13;;;19.40;;
73550;SDS011;61816;53.582;10.096;2022-12-18T13:25:53;46.97;;;21.47;;
73550;SDS011;61816;53.582;10.096;2022-12-18T13:31:10;45.80;;;20.77;;
73550;SDS011;61816;53.582;10.096;2022-12-18T13:33:39;49.63;;;20.17;;
73550;SDS011;61816;53.582;10.096;2022-12-18T13:38:40;48.40;;;20.67;;
73550;SDS011;61816;53.582;10.096;2022-12-18T13:43:48;49.70;;;20.27;;
73550;SDS011;61816;53.582;10.096;2022-12-18T13:48:55;49.90;;;20.53;;
73550;SDS011;61816;53.582;10.096;2022-12-18T13:51:22;50.13;;;20.13;;
73550;SDS011;61816;53.582;10.096;2022-12-18T13:53:50;52.07;;;20.03;;
73550;SDS011;61816;53.582;10.096;2022-12-18T13:56:21;48.47;;;21.33;;
73550;SDS011;61816;53.582;10.096;2022-12-18T14:01:42;45.57;;;19.97;;
73550;SDS011;61816;53.582;10.096;2022-12-18T14:07:14;60.67;;;22.03;;
73550;SDS011;61816;53.582;10.096;2022-12-18T14:09:44;51.47;;;19.73;;
73550;SDS011;61816;53.582;10.096;2022-12-18T14:12:18;58.00;;;22.23;;
73550;SDS011;61816;53.582;10.096;2022-12-18T14:17:37;58.40;;;24.17;;
73550;SDS011;61816;53.582;10.096;2022-12-18T14:20:02;56.60;;;24.17;;
73550;SDS011;61816;53.582;10.096;2022-12-18T14:22:28;54.87;;;22.80;;
73550;SDS011;61816;53.582;10.096;2022-12-18T14:25:05;61.53;;;22.57;;
73550;SDS011;61816;53.582;10.096;2022-12-18T14:27:42;62.67;;;24.67;;
73550;SDS011;61816;53.582;10.096;2022-12-18T14:33:10;59.80;;;24.50;;
73550;SDS011;61816;53.582;10.096;2022-12-18T14:35:38;67.37;;;23.73;;
73550;SDS011;61816;53.582;10.096;2022-12-18T14:38:35;65.53;;;25.97;;
73550;SDS011;61816;53.582;10.096;2022-12-18T14:41:03;69.20;;;26.13;;
73550;SDS011;61816;53.582;10.096;2022-12-18T14:43:42;67.20;;;24.97;;
73550;SDS011;61816;53.582;10.096;2022-12-18T14:46:26;56.17;;;23.00;;
73550;SDS011;61816;53.582;10.096;2022-12-18T14:48:52;73.37;;;26.13;;
73550;SDS011;61816;53.582;10.096;2022-12-18T14:51:22;66.97;;;24.80;;
73550;SDS011;61816;53.582;10.096;2022-12-18T14:53:59;72.57;;;26.30;;
73550;SDS011;61816;53.582;10.096;2022-12-18T14:56:31;67.37;;;26.13;;
73550;SDS011;61816;53.582;10.096;2022-12-18T14:59:00;70.80;;;25.83;;
73550;SDS011;61816;53.582;10.096;2022-12-18T15:01:32;69.93;;;27.77;;
73550;SDS011;61816;53.582;10.096;2022-12-18T15:04:02;75.33;;;27.73;;
73550;SDS011;61816;53.582;10.096;2022-12-18T15:06:37;63.17;;;25.47;;
73550;SDS011;61816;53.582;10.096;2022-12-18T15:09:21;67.43;;;28.10;;
73550;SDS011;61816;53.582;10.096;2022-12-18T15:11:48;72.17;;;26.07;;
73550;SDS011;61816;53.582;10.096;2022-12-18T15:14:21;64.93;;;26.73;;
73550;SDS011;61816;53.582;10.096;2022-12-18T15:16:52;68.33;;;25.30;;
73550;SDS011;61816;53.582;10.096;2022-12-18T15:19:19;82.20;;;27.45;;
73550;SDS011;61816;53.582;10.096;2022-12-18T15:21:47;69.33;;;27.57;;
73550;SDS011;61816;53.582;10.096;2022-12-18T15:24:20;82.10;;;27.07;;
73550;SDS011;61816;53.582;10.096;2022-12-18T15:26:52;76.93;;;27.07;;
73550;SDS011;61816;53.582;10.096;2022-12-18T15:29:19;82.40;;;28.87;;
73550;SDS011;61816;53.582;10.096;2022-12-18T15:32:01;69.07;;;25.33;;
73550;SDS011;61816;53.582;10.096;2022-12-18T15:34:29;77.97;;;27.27;;
73550;SDS011;61816;53.582;10.096;2022-12-18T15:36:55;71.70;;;24.93;;
73550;SDS011;61816;53.582;10.096;2022-12-18T15:39:20;63.37;;;24.47;;
73550;SDS011;61816;53.582;10.096;2022-12-18T15:41:46;73.07;;;24.77;;
73550;SDS011;61816;53.582;10.096;2022-12-18T15:44:30;72.60;;;27.50;;
73550;SDS011;61816;53.582;10.096;2022-12-18T15:46:56;71.83;;;26.23;;
73550;SDS011;61816;53.582;10.096;2022-12-18T15:49:21;71.53;;;24.93;;
73550;SDS011;61816;53.582;10.096;2022-12-18T15:51:53;75.63;;;26.83;;
73550;SDS011;61816;53.582;10.096;2022-12-18T15:54:21;65.83;;;24.83;;
73550;SDS011;61816;53.582;10.096;2022-12-18T15:57:08;74.53;;;27.50;;
73550;SDS011;61816;53.582;10.096;2022-12-18T15:59:51;76.37;;;25.67;;
73550;SDS011;61816;53.582;10.096;2022-12-18T16:02:18;71.07;;;25.77;;
73550;SDS011;61816;53.582;10.096;2022-12-18T16:04:44;66.73;;;26.53;;
73550;SDS011;61816;53.582;10.096;2022-12-18T16:07:13;75.77;;;27.73;;
73550;SDS011;61816;53.582;10.096;2022-12-18T16:09:38;74.93;;;26.87;;
73550;SDS011;61816;53.582;10.096;2022-12-18T16:12:04;71.47;;;27.30;;